Time;durP1;ratioP1;P1;durP2;ratioP2;P2;SDS_P1;SDS_P2;PMS_P1;PMS_P2;Temp;Humidity;BMP_temperature;BMP_pressure;BME280_temperature;BME280_humidity;BME280_pressure;Samples;Min_cycle;Max_cycle;Signal;HPM_P1;HPM_P2
2023/04/05 00:00:41;;;;;;;11.80;5.68;;;;;;;-1.49;84.07;93405.84;5065560;28;20033;-70
2023/04/05 00:03:08;;;;;;;13.82;7.38;;;;;;;-1.53;84.14;93417.81;5065662;28;20231;-70
2023/04/05 00:05:35;;;;;;;15.13;7.20;;;;;;;-1.61;84.86;93402.59;5065798;28;20031;-69
2023/04/05 00:08:02;;;;;;;16.38;7.68;;;;;;;-1.56;85.02;93410.50;5065631;28;20231;-69
2023/04/05 00:10:29;;;;;;;12.25;7.32;;;;;;;-1.54;85.16;93400.59;5065520;28;20024;-69
2023/04/05 00:12:55;;;;;;;13.60;7.47;;;;;;;-1.60;85.08;93412.03;5065375;28;20327;-69
2023/04/05 00:15:21;;;;;;;11.52;6.60;;;;;;;-1.64;84.53;93410.94;5065324;28;20088;-70
2023/04/05 00:17:47;;;;;;;12.80;6.90;;;;;;;-1.68;84.92;93400.19;5065379;28;20029;-69
2023/04/05 00:20:12;;;;;;;13.10;6.85;;;;;;;-1.67;85.06;93398.38;5065368;28;20028;-69
2023/04/05 00:22:42;;;;;;;11.55;6.38;;;;;;;-1.56;85.36;93402.66;5065366;28;20027;-70
2023/04/05 00:25:08;;;;;;;14.80;7.60;;;;;;;-1.56;84.93;93426.19;5065070;28;20284;-70
2023/04/05 00:27:33;;;;;;;10.95;6.53;;;;;;;-1.61;84.92;93399.97;5065171;28;20059;-70
2023/04/05 00:29:59;;;;;;;11.52;6.82;;;;;;;-1.57;84.92;93397.66;5065095;28;20020;-70
2023/04/05 00:32:25;;;;;;;13.25;6.90;;;;;;;-1.56;84.89;93413.09;5065108;28;20067;-70
2023/04/05 00:34:50;;;;;;;11.63;6.85;;;;;;;-1.60;84.86;93406.03;5065041;28;20020;-70
2023/04/05 00:37:16;;;;;;;11.63;6.97;;;;;;;-1.57;85.01;93410.75;5065096;28;20017;-70
2023/04/05 00:39:41;;;;;;;10.73;6.63;;;;;;;-1.55;84.65;93400.81;5065139;28;20024;-69
2023/04/05 00:42:08;;;;;;;13.38;6.97;;;;;;;-1.56;85.06;93415.72;5064812;28;20052;-70
2023/04/05 00:44:34;;;;;;;11.38;6.60;;;;;;;-1.49;84.95;93408.44;5064858;28;20021;-70
2023/04/05 00:47:04;;;;;;;12.43;7.10;;;;;;;-1.46;85.10;93425.47;5065035;28;20032;-70
2023/04/05 00:49:31;;;;;;;12.30;6.38;;;;;;;-1.43;84.92;93407.44;5064924;28;20021;-70
2023/04/05 00:51:57;;;;;;;12.88;5.93;;;;;;;-1.39;84.46;93406.97;5064925;28;20055;-70
2023/04/05 00:54:29;;;;;;;13.73;7.97;;;;;;;-1.37;84.79;93410.91;5064672;28;20306;-68
2023/04/05 00:56:55;;;;;;;;;;;;;;;-1.33;84.47;93417.22;5064787;28;20052;-69
2023/04/05 00:59:21;;;;;;;10.40;6.55;;;;;;;-1.36;84.38;93419.53;5064678;28;19987;-69
2023/04/05 01:01:54;;;;;;;10.05;6.68;;;;;;;-1.41;84.02;93420.28;5064469;28;20211;-70
2023/04/05 01:04:29;;;;;;;11.20;5.95;;;;;;;-1.36;83.96;93422.94;5064667;28;20043;-70
2023/04/05 01:07:07;;;;;;;9.63;6.22;;;;;;;-1.34;84.21;93418.25;5064500;28;20025;-70
2023/04/05 01:09:44;;;;;;;10.10;6.15;;;;;;;-1.42;84.00;93419.50;5064394;28;20331;-70
2023/04/05 01:12:16;;;;;;;8.88;5.63;;;;;;;-1.41;84.16;93415.06;5064444;28;20021;-69
2023/04/05 01:14:50;;;;;;;9.75;6.03;;;;;;;-1.43;83.61;93423.13;5064229;28;20033;-70
2023/04/05 01:17:21;;;;;;;11.10;5.32;;;;;;;-1.53;83.44;93417.81;5064182;28;20013;-70
2023/04/05 01:19:52;;;;;;;10.32;5.63;;;;;;;-1.51;83.53;93415.75;5064160;28;20021;-70
2023/04/05 01:22:40;;;;;;;8.93;5.75;;;;;;;-1.41;83.60;93415.06;5064290;28;20033;-69
2023/04/05 01:26:04;;;;;;;8.45;5.10;;;;;;;-1.44;82.95;93418.97;5063310;28;20020;-69
2023/04/05 01:28:56;;;;;;;8.48;5.53;;;;;;;-1.43;83.88;93430.97;5042324;28;20073;-69
2023/04/05 01:31:51;;;;;;;7.53;4.75;;;;;;;-1.42;83.01;93435.19;5042211;28;20205;-70
2023/04/05 01:34:29;;;;;;;8.82;5.75;;;;;;;-1.43;83.84;93420.53;5060689;28;20094;-69
2023/04/05 01:37:04;;;;;;;6.28;4.72;;;;;;;-1.42;83.30;93416.88;5063253;28;20031;-69
2023/04/05 01:39:30;;;;;;;8.35;4.85;;;;;;;-1.43;83.62;93422.34;5063929;28;20257;-68
2023/04/05 01:42:00;;;;;;;9.35;5.72;;;;;;;-1.33;83.61;93416.44;5063713;28;20056;-69
2023/04/05 01:44:26;;;;;;;10.20;5.72;;;;;;;-1.39;83.43;93414.81;5063843;28;20219;-69
2023/04/05 01:46:51;;;;;;;8.05;4.85;;;;;;;-1.41;83.54;93421.06;5063710;28;20040;-69
2023/04/05 01:49:17;;;;;;;8.20;5.30;;;;;;;-1.42;83.19;93423.94;5063567;28;20319;-69
2023/04/05 01:51:42;;;;;;;7.95;4.93;;;;;;;-1.32;83.45;93418.00;5063655;28;20027;-69
2023/04/05 01:54:08;;;;;;;7.95;5.40;;;;;;;-1.29;83.00;93407.03;5063578;28;20028;-69
2023/04/05 01:56:34;;;;;;;7.78;4.97;;;;;;;-1.27;82.81;93418.03;5063615;28;20343;-69
2023/04/05 01:58:59;;;;;;;10.88;5.03;;;;;;;-1.25;82.56;93418.59;5063532;28;20021;-70
2023/04/05 02:01:25;;;;;;;9.05;5.78;;;;;;;-1.27;82.47;93423.28;5063298;28;20025;-70
2023/04/05 02:03:50;;;;;;;10.48;5.97;;;;;;;-1.25;82.67;93424.59;5063422;28;20032;-70
2023/04/05 02:06:16;;;;;;;11.25;5.50;;;;;;;-1.18;82.47;93415.75;5063228;28;20056;-70
2023/04/05 02:08:41;;;;;;;11.90;5.13;;;;;;;-1.15;82.24;93426.50;5063464;28;20287;-69
2023/04/05 02:11:07;;;;;;;7.82;3.88;;;;;;;-1.17;82.00;93433.81;5063723;28;20215;-70
2023/04/05 02:13:32;;;;;;;7.57;3.92;;;;;;;-1.26;80.64;93432.72;5063271;28;20051;-70
2023/04/05 02:15:58;;;;;;;7.50;3.83;;;;;;;-1.17;81.32;93423.34;5063107;28;20020;-70
2023/04/05 02:18:28;;;;;;;5.82;3.88;;;;;;;-1.14;80.69;93422.88;5063200;28;20037;-70
2023/04/05 02:21:01;;;;;;;10.32;4.20;;;;;;;-1.09;80.77;93422.09;5063072;28;20029;-69
2023/04/05 02:23:26;;;;;;;6.68;4.13;;;;;;;-1.10;80.25;93429.16;5063106;28;20099;-70
2023/04/05 02:25:52;;;;;;;8.50;4.88;;;;;;;-1.10;80.53;93423.94;5063049;28;20025;-70
2023/04/05 02:28:17;;;;;;;7.97;4.32;;;;;;;-1.13;80.70;93431.50;5062978;28;20033;-70
2023/04/05 02:30:43;;;;;;;6.78;3.72;;;;;;;-1.14;80.74;93425.47;5062860;28;20084;-69
2023/04/05 02:33:09;;;;;;;6.60;4.50;;;;;;;-1.13;81.08;93421.03;5062870;28;20025;-69
2023/04/05 02:35:35;;;;;;;8.07;4.80;;;;;;;-1.13;81.30;93427.03;5063165;28;20048;-69
2023/04/05 02:38:03;;;;;;;8.10;4.82;;;;;;;-1.10;81.18;93420.50;5062971;28;20024;-69
2023/04/05 02:40:28;;;;;;;13.05;4.78;;;;;;;-1.11;80.97;93424.19;5062852;28;20028;-69
2023/04/05 02:42:54;;;;;;;7.55;4.40;;;;;;;-1.11;80.74;93417.13;5062801;28;20089;-69
2023/04/05 02:45:20;;;;;;;7.63;4.82;;;;;;;-1.16;81.10;93411.88;5062806;28;20334;-70
2023/04/05 02:47:45;;;;;;;6.70;4.40;;;;;;;-1.15;81.01;93402.97;5062574;28;20035;-69
2023/04/05 02:50:11;;;;;;;7.72;4.43;;;;;;;-1.15;81.53;93418.66;5062800;28;20020;-70
2023/04/05 02:52:36;;;;;;;7.97;3.88;;;;;;;-1.17;81.08;93418.13;5062807;28;20074;-70
2023/04/05 02:55:06;;;;;;;6.88;4.03;;;;;;;-1.11;80.93;93418.94;5062949;28;20020;-70
2023/04/05 02:57:31;;;;;;;7.10;4.00;;;;;;;-1.08;80.42;93428.91;5062658;28;20063;-70
2023/04/05 02:59:57;;;;;;;7.95;4.38;;;;;;;-1.07;80.50;93426.03;5062688;28;20053;-69
2023/04/05 03:02:22;;;;;;;7.50;3.72;;;;;;;-1.03;80.09;93432.34;5062412;28;20311;-69
2023/04/05 03:04:51;;;;;;;4.88;2.92;;;;;;;-1.06;79.98;93411.94;5062642;28;20037;-69
2023/04/05 03:07:17;;;;;;;6.43;3.58;;;;;;;-1.07;79.63;93418.19;5062556;28;20029;-68
2023/04/05 03:09:45;;;;;;;6.38;3.83;;;;;;;-1.02;79.50;93418.25;5062638;28;20021;-69
2023/04/05 03:12:10;;;;;;;5.45;3.75;;;;;;;-1.06;79.72;93411.94;5062639;28;20037;-68
2023/04/05 03:14:37;;;;;;;5.63;3.08;;;;;;;-1.09;79.34;93412.41;5062383;28;20316;-68
2023/04/05 03:17:03;;;;;;;5.05;3.42;;;;;;;-1.14;79.77;93417.63;5062646;28;20021;-68
2023/04/05 03:19:28;;;;;;;6.28;3.67;;;;;;;-1.16;79.98;93427.56;5061327;28;20094;-69
2023/04/05 03:21:54;;;;;;;6.82;3.97;;;;;;;-1.11;79.68;93424.19;5062370;28;20088;-69
2023/04/05 03:24:20;;;;;;;4.15;3.22;;;;;;;-1.13;79.53;93408.72;5061371;28;20058;-69
2023/04/05 03:26:47;;;;;;;7.43;4.85;;;;;;;-1.12;79.99;93407.72;5062359;28;20032;-69
2023/04/05 03:29:13;;;;;;;8.98;2.92;;;;;;;-1.08;80.44;93418.44;5062216;28;20052;-69
2023/04/05 03:31:38;;;;;;;5.78;3.92;;;;;;;-1.06;80.98;93419.78;5062258;28;20052;-70
2023/04/05 03:34:04;;;;;;;7.78;4.25;;;;;;;-1.15;82.00;93413.44;5062400;28;20312;-69
2023/04/05 03:36:29;;;;;;;7.28;3.95;;;;;;;-1.22;82.94;93412.88;5062249;28;20058;-69
2023/04/05 03:38:57;;;;;;;6.72;4.32;;;;;;;-1.17;83.52;93414.72;5062412;28;20099;-69
2023/04/05 03:41:23;;;;;;;6.65;3.83;;;;;;;-1.16;83.49;93416.28;5062203;28;20060;-69
2023/04/05 03:43:48;;;;;;;7.38;4.55;;;;;;;-1.19;83.04;93417.56;5062083;28;20032;-69
2023/04/05 03:46:14;;;;;;;8.15;4.63;;;;;;;-1.15;83.04;93423.09;5062128;28;20017;-69
2023/04/05 03:48:40;;;;;;;7.05;4.55;;;;;;;-1.14;83.17;93429.91;5062146;28;20029;-70
2023/04/05 03:51:06;;;;;;;7.05;4.00;;;;;;;-1.19;82.89;93435.09;5062365;28;20080;-70
2023/04/05 03:53:32;;;;;;;7.20;3.85;;;;;;;-1.19;83.73;93448.97;5062400;28;20215;-70
2023/04/05 03:55:57;;;;;;;5.15;3.47;;;;;;;-1.27;84.64;93433.72;5062123;28;20052;-69
2023/04/05 03:58:25;;;;;;;6.65;4.00;;;;;;;-1.27;86.02;93429.28;5062045;28;20113;-69
2023/04/05 04:00:51;;;;;;;7.22;4.32;;;;;;;-1.34;86.81;93430.53;5065171;28;20062;-69
2023/04/05 04:03:17;;;;;;;6.57;4.35;;;;;;;-1.36;87.49;93432.59;5065866;28;20065;-69
2023/04/05 04:05:42;;;;;;;8.60;4.60;;;;;;;-1.37;87.24;93436.25;5065856;28;20033;-69
2023/04/05 04:08:08;;;;;;;7.95;4.72;;;;;;;-1.39;87.15;93438.34;5065750;28;20029;-69
2023/04/05 04:10:34;;;;;;;6.85;3.88;;;;;;;-1.45;86.67;93440.91;5065715;28;20045;-69
2023/04/05 04:12:59;;;;;;;8.98;5.50;;;;;;;-1.39;86.17;93438.34;5065555;28;20029;-70
2023/04/05 04:15:25;;;;;;;12.02;6.28;;;;;;;-1.37;86.56;93437.03;5065531;28;20223;-69
2023/04/05 04:17:50;;;;;;;7.35;4.50;;;;;;;-1.35;85.86;93444.66;5065613;28;20104;-69
2023/04/05 04:20:16;;;;;;;9.68;5.38;;;;;;;-1.28;85.68;93437.41;5065337;28;20086;-69
2023/04/05 04:22:41;;;;;;;7.65;4.78;;;;;;;-1.21;85.19;93441.34;5065595;28;20066;-69
2023/04/05 04:25:09;;;;;;;7.03;4.45;;;;;;;-1.10;84.74;93438.81;5065267;28;20025;-68
2023/04/05 04:27:37;;;;;;;8.23;4.50;;;;;;;-1.05;83.80;93457.19;5065239;28;20269;-69
2023/04/05 04:30:05;;;;;;;5.97;4.05;;;;;;;-1.02;83.44;93449.63;5065196;28;20024;-69
2023/04/05 04:35:17;;;;;;;5.10;3.65;;;;;;;-0.94;81.89;93455.41;5065013;28;20094;-69
2023/04/05 04:37:45;;;;;;;7.60;3.88;;;;;;;-0.86;81.93;93452.34;5065065;28;20032;-69
2023/04/05 04:40:14;;;;;;;7.47;4.20;;;;;;;-0.86;82.21;93452.34;5065055;28;20188;-68
2023/04/05 04:42:43;;;;;;;5.93;3.17;;;;;;;-0.81;80.69;93457.63;5065154;28;20029;-68
2023/04/05 04:45:10;;;;;;;5.82;3.33;;;;;;;-0.74;79.58;93450.31;5064903;28;20075;-68
2023/04/05 04:47:36;;;;;;;3.38;2.33;;;;;;;-0.77;78.33;93456.06;5065151;28;20082;-69
2023/04/05 04:50:03;;;;;;;5.63;1.80;;;;;;;-0.85;77.46;93462.56;5064817;28;20025;-69
2023/04/05 04:52:29;;;;;;;2.63;1.40;;;;;;;-0.84;76.37;93476.41;5064674;28;20029;-69
2023/04/05 04:54:54;;;;;;;2.50;1.40;;;;;;;-0.84;75.14;93463.34;5064850;28;20070;-69
2023/04/05 04:57:20;;;;;;;3.33;1.55;;;;;;;-0.83;75.93;93467.53;5064491;28;20335;-69
2023/04/05 04:59:45;;;;;;;2.97;1.60;;;;;;;-0.91;74.92;93475.88;5064775;28;20370;-69
2023/04/05 05:02:11;;;;;;;2.38;1.38;;;;;;;-0.91;75.64;93468.78;5064452;28;20323;-69
2023/04/05 05:04:36;;;;;;;2.42;1.40;;;;;;;-0.86;76.56;93458.34;5064567;28;20065;-69
2023/04/05 05:07:02;;;;;;;3.35;1.90;;;;;;;-0.81;76.67;93462.84;5064398;28;20029;-70
2023/04/05 05:09:27;;;;;;;4.68;2.22;;;;;;;-0.76;77.20;93459.47;5064324;28;20092;-70
2023/04/05 05:11:52;;;;;;;3.40;2.35;;;;;;;-0.76;77.25;93462.09;5063358;28;20024;-70
2023/04/05 05:14:18;;;;;;;3.65;2.22;;;;;;;-0.71;77.53;93456.88;5064254;28;20028;-69
2023/04/05 05:16:43;;;;;;;4.03;2.40;;;;;;;-0.66;77.37;93470.00;5064235;28;20017;-69
2023/04/05 05:19:09;;;;;;;6.90;2.70;;;;;;;-0.66;77.10;93473.41;5064251;28;20025;-69
2023/04/05 05:21:35;;;;;;;5.80;2.47;;;;;;;-0.68;76.70;93496.41;5064181;28;20021;-69
2023/04/05 05:24:01;;;;;;;5.35;2.28;;;;;;;-0.70;77.63;93467.09;5064242;28;20036;-69
2023/04/05 05:26:26;;;;;;;4.55;2.70;;;;;;;-0.65;78.16;93482.06;5064010;28;20032;-69
2023/04/05 05:28:52;;;;;;;4.53;2.60;;;;;;;-0.66;77.45;93477.84;5063916;28;20017;-70
2023/04/05 05:31:18;;;;;;;6.35;2.88;;;;;;;-0.66;77.73;93470.00;5064072;28;20303;-69
2023/04/05 05:33:48;;;;;;;7.65;3.35;;;;;;;-0.63;79.07;93465.06;5062705;28;20021;-69
2023/04/05 05:36:13;;;;;;;4.22;2.28;;;;;;;-0.68;77.05;93451.94;5063870;28;20033;-69
2023/04/05 05:38:39;;;;;;;6.60;2.97;;;;;;;-0.63;78.32;93462.44;5063974;28;20025;-69
2023/04/05 05:41:04;;;;;;;8.93;3.67;;;;;;;-0.64;78.95;93465.31;5063882;28;20391;-69
2023/04/05 05:43:30;;;;;;;9.02;4.18;;;;;;;-0.57;80.09;93462.44;5063896;28;20091;-69
2023/04/05 05:46:00;;;;;;;6.18;4.03;;;;;;;-0.52;80.50;93462.50;5063638;28;20223;-70
2023/04/05 05:48:25;;;;;;;7.05;3.00;;;;;;;-0.49;77.83;93461.97;5063748;28;20223;-70
2023/04/05 05:50:50;;;;;;;3.25;1.95;;;;;;;-0.41;75.66;93456.25;5062542;28;20025;-70
2023/04/05 05:53:16;;;;;;;4.65;2.03;;;;;;;-0.32;75.42;93467.84;5063815;28;20025;-70
2023/04/05 05:55:41;;;;;;;2.50;1.10;;;;;;;-0.23;71.30;93461.06;5063571;28;20021;-69
2023/04/05 05:58:07;;;;;;;1.25;1.00;;;;;;;-0.13;71.06;93452.47;5063303;28;20036;-70
2023/04/05 06:00:32;;;;;;;1.88;1.20;;;;;;;-0.07;71.38;93466.38;5095821;28;20029;-70
2023/04/05 06:02:57;;;;;;;1.13;0.80;;;;;;;-0.09;70.23;93453.53;5063304;28;20324;-70
2023/04/05 06:05:24;;;;;;;1.85;0.77;;;;;;;-0.11;70.09;93454.81;5063352;28;20084;-70
2023/04/05 06:07:49;;;;;;;1.35;0.80;;;;;;;0.03;68.84;93468.25;5063197;28;20084;-70
2023/04/05 06:10:15;;;;;;;1.77;1.00;;;;;;;-0.04;69.90;93450.13;5063293;28;20396;-69
2023/04/05 06:12:40;;;;;;;2.00;1.10;;;;;;;0.00;69.13;93480.03;5063055;28;20029;-69
2023/04/05 06:15:06;;;;;;;1.48;1.10;;;;;;;0.09;68.25;93461.97;5063295;28;20028;-69
2023/04/05 06:17:33;;;;;;;1.63;1.00;;;;;;;0.23;67.84;93472.78;5063092;28;20356;-69
2023/04/05 06:19:58;;;;;;;1.05;0.65;;;;;;;0.17;66.70;93464.09;5061960;28;20037;-70
2023/04/05 06:22:23;;;;;;;1.67;0.85;;;;;;;0.24;68.37;93469.88;5062792;28;20051;-70
2023/04/05 06:24:49;;;;;;;1.13;0.80;;;;;;;0.35;67.23;93460.22;5062940;28;20033;-79
2023/04/05 06:27:14;;;;;;;1.98;0.95;;;;;;;0.30;66.46;93475.94;5062874;28;20214;-77
2023/04/05 06:29:40;;;;;;;1.50;0.98;;;;;;;0.31;67.00;93469.66;5061637;28;20024;-78
2023/04/05 06:32:05;;;;;;;0.90;0.70;;;;;;;0.32;67.01;93481.69;5063053;28;20028;-77
2023/04/05 06:34:31;;;;;;;1.33;0.80;;;;;;;0.46;66.91;93468.88;5063024;28;20029;-77
2023/04/05 06:36:57;;;;;;;1.90;1.10;;;;;;;0.55;67.67;93481.25;5062740;28;20027;-77
2023/04/05 06:39:22;;;;;;;1.98;0.88;;;;;;;0.58;66.55;93490.41;5061479;28;20099;-78
2023/04/05 06:41:48;;;;;;;1.77;0.90;;;;;;;0.59;65.30;93489.34;5061467;28;20227;-79
2023/04/05 06:44:13;;;;;;;2.78;1.20;;;;;;;0.65;66.37;93485.69;5062752;28;20029;-78
2023/04/05 06:46:39;;;;;;;2.47;1.20;;;;;;;0.73;66.58;93476.53;5062606;28;20344;-77
2023/04/05 06:49:04;;;;;;;1.08;0.88;;;;;;;0.90;65.80;93479.72;5062717;28;20104;-81
2023/04/05 06:51:30;;;;;;;2.33;0.80;;;;;;;1.07;66.05;93507.53;5062663;28;20158;-81
2023/04/05 06:53:56;;;;;;;1.75;1.10;;;;;;;1.17;65.18;93491.78;5062543;28;20025;-84
2023/04/05 06:56:22;;;;;;;9.93;1.38;;;;;;;1.33;65.80;93484.69;5062673;28;20185;-85
2023/04/05 06:58:48;;;;;;;1.75;1.00;;;;;;;1.38;63.09;93501.22;5062695;28;20025;-80
2023/04/05 07:01:13;;;;;;;2.83;0.80;;;;;;;1.30;62.53;93511.47;5062415;28;20045;-81
2023/04/05 07:03:39;;;;;;;0.93;0.70;;;;;;;1.26;63.76;93511.19;5062677;28;20262;-81
2023/04/05 07:06:05;;;;;;;12.75;1.30;;;;;;;1.38;65.06;93518.81;5062594;28;20032;-81
2023/04/05 07:08:31;;;;;;;6.82;1.05;;;;;;;1.36;62.91;93516.47;5061388;28;20124;-82
2023/04/05 07:10:57;;;;;;;3.55;1.08;;;;;;;1.35;64.42;93507.00;5061132;28;20043;-80
2023/04/05 07:13:24;;;;;;;1.48;0.90;;;;;;;1.28;64.23;93519.59;5062209;28;20383;-80
2023/04/05 07:15:50;;;;;;;1.23;0.80;;;;;;;1.19;63.90;93515.94;5062297;28;20033;-79
2023/04/05 07:18:16;;;;;;;1.45;0.82;;;;;;;1.11;64.10;93514.63;5062192;28;20052;-80
2023/04/05 07:20:42;;;;;;;2.72;1.40;;;;;;;1.03;64.60;93522.22;5062377;28;20032;-80
2023/04/05 07:23:07;;;;;;;2.25;1.20;;;;;;;1.07;64.88;93520.66;5062530;28;20025;-80
2023/04/05 07:25:33;;;;;;;2.20;1.13;;;;;;;1.18;65.54;93523.03;5062411;28;20025;-80
2023/04/05 07:27:58;;;;;;;2.65;1.00;;;;;;;1.19;63.68;93527.22;5062331;28;20029;-80
2023/04/05 07:30:27;;;;;;;3.63;1.45;;;;;;;1.11;64.14;93530.38;5062205;28;20098;-80
2023/04/05 07:32:53;;;;;;;2.15;1.05;;;;;;;1.05;64.23;93530.63;5062106;28;20079;-77
2023/04/05 07:35:19;;;;;;;1.55;1.10;;;;;;;0.99;64.79;93532.44;5064612;28;20025;-76
2023/04/05 07:37:44;;;;;;;2.83;1.20;;;;;;;0.86;65.25;93530.34;5065956;28;20323;-75
2023/04/05 07:40:11;;;;;;;2.58;1.55;;;;;;;0.88;64.86;93534.28;5066053;28;20032;-76
2023/04/05 07:42:36;;;;;;;3.15;1.10;;;;;;;0.89;65.47;93527.97;5065979;28;20044;-81
2023/04/05 07:45:05;;;;;;;6.57;1.25;;;;;;;0.81;65.31;93531.09;5065028;28;20063;-77
2023/04/05 07:47:33;;;;;;;3.28;1.77;;;;;;;0.85;65.54;93521.66;5065906;28;20052;-76
2023/04/05 07:49:59;;;;;;;1.35;0.80;;;;;;;0.82;65.29;93534.53;5065862;28;20029;-79
2023/04/05 07:52:24;;;;;;;4.38;1.17;;;;;;;0.67;65.13;93549.22;5065767;28;20086;-78
2023/04/05 07:54:51;;;;;;;4.90;1.38;;;;;;;0.65;66.27;93543.41;5065774;28;20104;-77
2023/04/05 07:57:19;;;;;;;9.60;1.65;;;;;;;0.60;66.71;93544.19;5064408;28;20045;-78
2023/04/05 07:59:46;;;;;;;2.42;1.15;;;;;;;0.61;66.63;93550.22;5098212;28;20215;-77
2023/04/05 08:02:12;;;;;;;4.65;1.25;;;;;;;0.58;65.44;93556.78;5065532;28;20075;-76
2023/04/05 08:04:37;;;;;;;8.80;1.48;;;;;;;0.56;66.47;93556.22;5065489;28;20016;-75
2023/04/05 08:07:03;;;;;;;2.80;1.35;;;;;;;0.52;67.15;93570.91;5065830;28;20311;-74
2023/04/05 08:09:28;;;;;;;4.95;1.48;;;;;;;0.54;67.11;93563.56;5065493;28;20025;-75
2023/04/05 08:11:56;;;;;;;3.20;1.60;;;;;;;0.50;67.42;93559.09;5065398;28;20025;-74
2023/04/05 08:14:21;;;;;;;3.10;1.17;;;;;;;0.52;67.10;93562.25;5065346;28;20331;-75
2023/04/05 08:16:48;;;;;;;2.60;1.30;;;;;;;0.60;66.79;93582.75;5065256;28;20047;-77
2023/04/05 08:19:14;;;;;;;3.05;1.50;;;;;;;0.66;67.32;93576.47;5065392;28;20028;-77
2023/04/05 08:21:39;;;;;;;2.88;1.25;;;;;;;0.58;66.68;93569.88;5065284;28;20239;-77
2023/04/05 08:24:05;;;;;;;2.88;1.30;;;;;;;0.61;67.58;93573.81;5065270;28;20215;-77
2023/04/05 08:26:30;;;;;;;1.58;1.00;;;;;;;0.59;67.23;93562.78;5065235;28;20315;-76
2023/04/05 08:28:56;;;;;;;7.47;1.48;;;;;;;0.60;68.84;93567.00;5065089;28;20274;-75
2023/04/05 08:31:21;;;;;;;4.07;1.48;;;;;;;0.56;68.06;93571.97;5065147;28;20035;-76
2023/04/05 08:33:47;;;;;;;3.35;1.35;;;;;;;0.58;68.27;93577.75;5063965;28;20024;-76
2023/04/05 08:36:12;;;;;;;4.40;1.48;;;;;;;0.53;67.98;93585.63;5065144;28;20024;-75
2023/04/05 08:38:37;;;;;;;3.35;1.52;;;;;;;0.58;69.20;93580.38;5064941;28;20028;-74
2023/04/05 08:41:16;;;;;;;8.18;2.50;;;;;;;0.57;69.33;93586.69;5065012;28;20055;-73
2023/04/05 08:44:11;;;;;;;2.47;1.38;;;;;;;0.54;68.28;93578.53;5064850;28;20345;-74
2023/04/05 08:46:37;;;;;;;7.38;1.05;;;;;;;0.50;68.26;93578.25;5063874;28;20369;-73
2023/04/05 08:49:06;;;;;;;2.15;1.10;;;;;;;0.46;69.01;93584.28;5064976;28;20052;-74
2023/04/05 08:51:32;;;;;;;2.28;1.35;;;;;;;0.46;69.13;93586.88;5064866;28;20021;-75
2023/04/05 08:53:59;;;;;;;3.70;1.70;;;;;;;0.53;69.76;93585.63;5064655;28;20021;-76
2023/04/05 08:56:26;;;;;;;4.07;1.98;;;;;;;0.57;69.40;93578.81;5064717;28;20083;-75
2023/04/05 08:58:56;;;;;;;3.88;1.63;;;;;;;0.70;68.91;93592.50;5064607;28;20025;-76
2023/04/05 09:01:22;;;;;;;3.60;1.52;;;;;;;0.70;66.75;93592.50;5063302;28;20341;-76
2023/04/05 09:03:51;;;;;;;6.40;1.20;;;;;;;0.71;66.08;93594.06;5064334;28;20079;-75
2023/04/05 09:06:17;;;;;;;1.85;1.00;;;;;;;0.78;66.00;93597.22;5064399;28;20024;-76
2023/04/05 09:08:43;;;;;;;2.60;1.42;;;;;;;0.80;66.57;93609.03;5064436;28;20389;-75
2023/04/05 09:11:10;;;;;;;4.13;1.23;;;;;;;0.78;67.81;93610.34;5064492;28;20017;-77
2023/04/05 09:13:36;;;;;;;3.83;1.60;;;;;;;0.96;67.86;93595.97;5064574;28;20247;-79
2023/04/05 09:16:02;;;;;;;9.57;1.80;;;;;;;1.11;66.25;93608.34;5064396;28;20055;-80
2023/04/05 09:18:27;;;;;;;4.45;1.50;;;;;;;1.19;66.25;93613.84;5064190;28;20270;-77
2023/04/05 09:21:06;;;;;;;2.63;1.55;;;;;;;1.15;65.73;93617.25;5064281;28;20088;-76
2023/04/05 09:23:35;;;;;;;2.00;1.20;;;;;;;1.14;65.93;93607.78;5064249;28;20040;-78
2023/04/05 09:26:23;;;;;;;8.52;1.48;;;;;;;1.17;64.84;93608.06;5064367;28;20215;-77
2023/04/05 09:28:48;;;;;;;3.28;1.65;;;;;;;1.18;64.24;93599.16;5061449;28;20040;-80
2023/04/05 09:31:32;;;;;;;5.05;2.30;;;;;;;1.30;67.33;93598.88;5062090;28;20055;-79
2023/04/05 09:34:02;;;;;;;2.65;1.50;;;;;;;1.36;69.33;93590.00;5062400;28;20100;-79
2023/04/05 09:36:28;;;;;;;2.85;1.90;;;;;;;1.49;68.22;93608.91;5062266;28;20061;-80
2023/04/05 09:39:04;;;;;;;4.18;2.38;;;;;;;1.60;68.98;93594.72;5061985;28;20021;-79
2023/04/05 09:41:29;;;;;;;3.88;2.17;;;;;;;1.73;67.42;93591.56;5062210;28;20378;-79
2023/04/05 09:43:55;;;;;;;3.75;2.15;;;;;;;1.61;67.26;93606.81;5063283;28;20020;-80
2023/04/05 09:46:36;;;;;;;5.00;2.50;;;;;;;1.52;68.74;93589.97;5063703;28;20375;-79
2023/04/05 09:49:02;;;;;;;5.68;2.25;;;;;;;1.45;68.73;93582.38;5063709;28;20024;-79
2023/04/05 09:51:37;;;;;;;3.38;1.63;;;;;;;1.51;69.58;93594.47;5062463;28;20373;-79
2023/04/05 09:54:07;;;;;;;8.82;2.17;;;;;;;1.50;69.15;93586.84;5063449;28;20025;-79
2023/04/05 09:56:38;;;;;;;3.65;1.77;;;;;;;1.49;67.66;93587.91;5062998;28;20037;-79
2023/04/05 09:59:11;;;;;;;4.18;2.10;;;;;;;1.37;67.95;93619.66;5063391;28;20027;-79
2023/04/05 10:01:38;;;;;;;4.70;2.00;;;;;;;1.32;68.47;93602.06;5062160;28;20262;-79
2023/04/05 10:04:03;;;;;;;4.90;1.83;;;;;;;1.36;66.91;93618.88;5063439;28;20020;-79
2023/04/05 10:06:41;;;;;;;6.78;2.50;;;;;;;1.28;65.59;93592.34;5063184;28;20215;-79
2023/04/05 10:09:08;;;;;;;4.63;2.50;;;;;;;1.33;65.31;93593.13;5062034;28;20032;-79
2023/04/05 10:11:35;;;;;;;3.13;1.70;;;;;;;1.32;63.38;93604.69;5063256;28;20096;-79
2023/04/05 10:14:04;;;;;;;3.60;1.85;;;;;;;1.26;65.05;93610.97;5063074;28;20032;-79
2023/04/05 10:16:32;;;;;;;2.83;1.77;;;;;;;1.12;64.74;93602.00;5063204;28;20118;-76
2023/04/05 10:18:58;;;;;;;4.20;2.20;;;;;;;1.07;65.05;93612.53;5063201;28;20025;-75
2023/04/05 10:21:28;;;;;;;4.28;2.20;;;;;;;1.03;65.10;93604.38;5062846;28;20021;-75
2023/04/05 10:24:25;;;;;;;6.90;3.10;;;;;;;1.00;66.00;93597.81;5062837;28;20025;-74
2023/04/05 10:27:04;;;;;;;4.65;2.58;;;;;;;0.87;65.84;93632.41;5058090;28;20100;-76
2023/04/05 10:29:37;;;;;;;4.70;2.88;;;;;;;0.69;66.14;93622.38;5061626;28;20052;-75
2023/04/05 10:32:16;;;;;;;4.25;2.58;;;;;;;0.72;66.49;93627.91;5062957;28;20021;-76
2023/04/05 10:34:53;;;;;;;3.90;2.63;;;;;;;0.71;66.42;93622.91;5062704;28;20231;-74
2023/04/05 10:37:47;;;;;;;5.85;3.08;;;;;;;0.66;66.31;93610.56;5062558;28;20028;-74
2023/04/05 10:40:14;;;;;;;4.90;3.28;;;;;;;0.69;66.41;93617.13;5062577;28;20074;-75
2023/04/05 10:42:46;;;;;;;4.70;2.63;;;;;;;0.76;67.07;93607.19;5062931;28;20255;-75
2023/04/05 10:45:15;;;;;;;5.57;3.00;;;;;;;0.90;66.46;93605.66;5062544;28;20055;-75
2023/04/05 10:48:09;;;;;;;4.22;2.67;;;;;;;0.83;65.76;93615.59;5062547;28;20124;-75
2023/04/05 10:50:36;;;;;;;6.45;3.67;;;;;;;0.92;66.97;93616.69;5062616;28;20044;-75
2023/04/05 10:53:02;;;;;;;5.65;3.20;;;;;;;0.94;66.26;93624.31;5062620;28;20067;-74
2023/04/05 10:55:28;;;;;;;4.68;2.78;;;;;;;0.94;67.18;93627.72;5062464;28;20029;-75
2023/04/05 10:57:54;;;;;;;8.82;3.70;;;;;;;1.02;66.31;93621.19;5062509;28;20049;-74
2023/04/05 11:00:22;;;;;;;7.10;3.92;;;;;;;1.02;66.86;93612.50;5062374;28;20131;-76
2023/04/05 11:02:52;;;;;;;4.95;2.92;;;;;;;1.06;66.15;93622.25;5061190;28;20055;-75
2023/04/05 11:05:36;;;;;;;6.85;3.22;;;;;;;1.12;65.67;93623.03;5062446;28;20020;-78
2023/04/05 11:08:11;;;;;;;9.98;4.07;;;;;;;1.03;64.79;93624.59;5062542;28;20017;-76
2023/04/05 11:10:38;;;;;;;8.23;3.22;;;;;;;1.02;64.00;93642.19;5064445;28;20216;-75
2023/04/05 11:13:05;;;;;;;4.53;2.97;;;;;;;0.97;64.43;93635.06;5066601;28;20024;-76
2023/04/05 11:15:32;;;;;;;8.05;3.72;;;;;;;0.98;65.58;93631.41;5066550;28;20032;-74
2023/04/05 11:18:21;;;;;;;5.75;3.75;;;;;;;1.00;65.69;93629.31;5065379;28;20262;-74
2023/04/05 11:20:51;;;;;;;8.45;4.65;;;;;;;1.08;66.12;93633.28;5063321;28;20040;-75
2023/04/05 11:23:19;;;;;;;6.35;3.60;;;;;;;1.13;65.42;93628.00;5066513;28;20028;-75
2023/04/05 11:25:53;;;;;;;6.50;3.80;;;;;;;1.12;65.97;93630.88;5066245;28;20021;-74
2023/04/05 11:28:29;;;;;;;10.43;3.45;;;;;;;1.08;65.54;93629.84;5066185;28;20261;-75
2023/04/05 11:30:55;;;;;;;7.20;4.00;;;;;;;1.14;64.90;93631.41;5066344;28;20021;-74
2023/04/05 11:33:48;;;;;;;5.78;3.63;;;;;;;1.19;65.07;93631.44;5066342;28;20251;-75
2023/04/05 11:36:46;;;;;;;6.68;3.75;;;;;;;1.05;64.19;93638.25;5066138;28;20024;-76
2023/04/05 11:39:18;;;;;;;8.23;3.28;;;;;;;1.04;64.75;93644.53;5066297;28;20040;-75
2023/04/05 11:41:45;;;;;;;7.40;4.10;;;;;;;1.13;65.43;93629.84;5066011;28;20077;-74
2023/04/05 11:44:15;;;;;;;6.43;3.80;;;;;;;1.33;64.95;93626.47;5065989;28;20036;-74